Time;durP1;ratioP1;P1;durP2;ratioP2;P2;SDS_P1;SDS_P2;PMS_P1;PMS_P2;Temp;Humidity;BMP_temperature;BMP_pressure;BME280_temperature;BME280_humidity;BME280_pressure;Samples;Min_cycle;Max_cycle;Signal;HPM_P1;HPM_P2
2021/12/31 00:00:45;;;;;;;6.93;2.50;;;12.80;1.00;;;;;;5051874;28;20229;-62
2021/12/31 00:03:13;;;;;;;5.97;2.30;;;12.90;1.00;;;;;;5051676;28;20680;-62
2021/12/31 00:05:40;;;;;;;6.03;2.40;;;12.90;1.00;;;;;;5052047;28;20296;-62
2021/12/31 00:08:06;;;;;;;4.83;2.43;;;12.90;1.00;;;;;;5051801;28;20230;-61
2021/12/31 00:10:33;;;;;;;4.50;2.20;;;12.90;1.00;;;;;;5051949;28;20231;-63
2021/12/31 00:13:00;;;;;;;4.27;2.10;;;12.90;1.00;;;;;;5051533;28;20215;-61
2021/12/31 00:15:27;;;;;;;3.77;1.90;;;13.00;1.00;;;;;;5051437;28;20201;-61
2021/12/31 00:17:53;;;;;;;6.50;2.33;;;12.90;1.00;;;;;;5051499;28;20286;-62
2021/12/31 00:20:24;;;;;;;7.03;2.37;;;12.90;1.00;;;;;;5051554;28;20236;-62
2021/12/31 00:23:06;;;;;;;6.83;2.10;;;13.00;1.00;;;;;;5051753;28;20270;-62
2021/12/31 00:25:34;;;;;;;7.73;1.93;;;13.00;1.00;;;;;;5051302;28;20215;-61
2021/12/31 00:28:01;;;;;;;4.40;1.50;;;13.00;1.00;;;;;;5051084;28;20225;-61
2021/12/31 00:30:28;;;;;;;4.07;1.63;;;13.00;1.00;;;;;;5051393;28;20263;-62
2021/12/31 00:32:55;;;;;;;5.67;1.97;;;13.00;1.00;;;;;;5051452;28;20625;-62
2021/12/31 00:35:23;;;;;;;5.87;1.83;;;13.10;1.00;;;;;;5051407;28;20286;-62
2021/12/31 00:37:50;;;;;;;2.10;1.10;;;13.10;1.00;;;;;;5051460;28;20283;-62
2021/12/31 00:40:18;;;;;;;7.53;1.87;;;13.20;1.00;;;;;;5051424;28;20264;-62
2021/12/31 00:42:45;;;;;;;3.53;1.60;;;13.20;1.00;;;;;;5051337;28;20217;-62
2021/12/31 00:45:16;;;;;;;5.27;1.50;;;13.20;1.00;;;;;;5051569;28;20244;-62
2021/12/31 00:47:43;;;;;;;4.73;1.60;;;13.20;1.00;;;;;;5051472;28;20213;-61
2021/12/31 00:50:11;;;;;;;3.67;1.63;;;13.20;1.00;;;;;;5051918;28;20201;-61
2021/12/31 00:52:39;;;;;;;7.67;1.80;;;13.20;1.00;;;;;;5052085;28;20637;-62
2021/12/31 00:55:08;;;;;;;5.10;1.80;;;13.20;1.00;;;;;;5050974;28;20213;-62
2021/12/31 00:57:35;;;;;;;5.47;1.30;;;13.20;1.00;;;;;;5051140;28;20216;-62
2021/12/31 01:00:02;;;;;;;3.00;1.50;;;13.20;1.00;;;;;;5051061;28;20225;-61
2021/12/31 01:02:29;;;;;;;2.73;1.33;;;13.20;1.00;;;;;;5050931;28;20683;-62
2021/12/31 01:04:56;;;;;;;3.87;1.70;;;13.30;1.00;;;;;;5051031;28;20210;-60
2021/12/31 01:07:23;;;;;;;3.77;1.77;;;13.30;1.00;;;;;;5050893;28;20244;-62
2021/12/31 01:09:54;;;;;;;3.20;1.57;;;13.30;1.00;;;;;;5051022;28;20226;-62
2021/12/31 01:12:21;;;;;;;3.00;1.30;;;13.30;1.00;;;;;;5051246;28;20251;-62
2021/12/31 01:14:56;;;;;;;3.60;1.43;;;13.30;1.00;;;;;;5051258;28;20702;-62
2021/12/31 01:17:39;;;;;;;2.77;1.47;;;13.30;1.00;;;;;;5051481;28;20208;-62
2021/12/31 01:20:07;;;;;;;3.60;1.30;;;13.30;1.00;;;;;;5051112;28;20225;-61
2021/12/31 01:22:35;;;;;;;3.00;1.47;;;13.40;1.00;;;;;;5050665;28;20213;-61
2021/12/31 01:25:05;;;;;;;2.43;1.03;;;13.40;1.00;;;;;;5051616;28;20259;-61
2021/12/31 01:27:32;;;;;;;2.73;1.27;;;13.40;1.00;;;;;;5050953;28;20246;-60
2021/12/31 01:29:59;;;;;;;4.63;1.40;;;13.50;1.00;;;;;;5051230;28;20209;-62
2021/12/31 01:32:26;;;;;;;4.57;1.83;;;13.40;1.00;;;;;;5050836;28;20205;-60
2021/12/31 01:34:53;;;;;;;2.27;1.20;;;13.40;1.00;;;;;;5050520;28;20613;-62
2021/12/31 01:37:19;;;;;;;6.30;1.50;;;13.30;1.00;;;;;;5050807;28;20332;-62
2021/12/31 01:39:46;;;;;;;4.13;1.37;;;13.40;1.00;;;;;;5050695;28;20229;-60
2021/12/31 01:42:14;;;;;;;4.60;1.50;;;13.40;1.00;;;;;;5051047;28;20213;-62
2021/12/31 01:44:45;;;;;;;2.27;1.23;;;13.40;1.00;;;;;;5050907;28;20213;-61
2021/12/31 01:47:16;;;;;;;2.47;1.20;;;13.50;1.00;;;;;;5050637;28;20300;-62
2021/12/31 01:49:54;;;;;;;5.80;1.47;;;13.50;1.00;;;;;;5050474;28;20736;-62
2021/12/31 01:52:22;;;;;;;6.37;1.70;;;13.50;1.00;;;;;;5051024;28;20279;-62
2021/12/31 01:54:49;;;;;;;2.77;1.33;;;13.40;1.00;;;;;;5050814;28;20263;-62
2021/12/31 01:57:18;;;;;;;5.23;1.50;;;13.50;99.90;;;;;;5050293;28;20210;-61
2021/12/31 01:59:45;;;;;;;3.50;1.40;;;13.50;1.00;;;;;;5050223;28;20252;-62
2021/12/31 02:02:12;;;;;;;2.60;1.10;;;13.50;1.00;;;;;;5050470;28;20690;-62
2021/12/31 02:04:40;;;;;;;2.00;1.27;;;13.40;99.90;;;;;;5050563;28;20213;-61
2021/12/31 02:07:07;;;;;;;2.27;1.23;;;13.40;99.90;;;;;;5053048;28;20217;-62
2021/12/31 02:09:37;;;;;;;4.60;1.37;;;13.40;99.90;;;;;;5054223;28;20279;-62
2021/12/31 02:12:05;;;;;;;5.70;1.50;;;13.50;99.90;;;;;;5054358;28;20248;-62
2021/12/31 02:14:34;;;;;;;2.57;1.77;;;13.50;99.90;;;;;;5054549;28;20584;-62
2021/12/31 02:17:04;;;;;;;4.50;1.50;;;13.50;99.90;;;;;;5054137;28;20213;-62
2021/12/31 02:19:31;;;;;;;4.97;1.20;;;13.50;99.90;;;;;;5053821;28;20225;-62
2021/12/31 02:22:00;;;;;;;2.97;1.20;;;13.40;99.90;;;;;;5053834;28;20226;-62
2021/12/31 02:24:27;;;;;;;3.40;1.37;;;13.40;99.90;;;;;;5053745;28;20684;-62
2021/12/31 02:26:53;;;;;;;7.07;1.80;;;13.40;99.90;;;;;;5053762;28;20213;-62
2021/12/31 02:29:21;;;;;;;1.53;1.20;;;13.40;99.90;;;;;;5053576;28;20265;-62
2021/12/31 02:31:48;;;;;;;3.23;1.37;;;13.40;99.90;;;;;;5053789;28;20241;-62
2021/12/31 02:34:15;;;;;;;5.60;1.40;;;13.50;99.90;;;;;;5053526;28;20629;-62
2021/12/31 02:36:42;;;;;;;2.50;1.13;;;13.50;99.90;;;;;;5053388;28;20209;-62
2021/12/31 02:39:10;;;;;;;4.33;1.37;;;13.50;99.90;;;;;;5053361;28;20275;-63
2021/12/31 02:41:36;;;;;;;4.57;1.60;;;13.50;99.90;;;;;;5053524;28;20232;-62
2021/12/31 02:44:03;;;;;;;3.03;1.23;;;13.50;99.90;;;;;;5053553;28;20205;-62
2021/12/31 02:46:30;;;;;;;4.67;1.50;;;13.50;99.90;;;;;;5053132;28;20213;-62
2021/12/31 02:48:58;;;;;;;3.97;1.33;;;13.50;99.90;;;;;;5053384;28;20225;-61
2021/12/31 02:51:26;;;;;;;3.53;1.40;;;13.50;99.90;;;;;;5053114;28;20583;-62
2021/12/31 02:53:54;;;;;;;3.93;1.20;;;13.50;99.90;;;;;;5053563;28;20214;-61
2021/12/31 02:56:23;;;;;;;3.70;1.43;;;13.50;99.90;;;;;;5053087;28;20210;-62
2021/12/31 02:58:52;;;;;;;1.23;1.00;;;13.50;99.90;;;;;;5053181;28;20237;-62
2021/12/31 03:01:19;;;;;;;2.53;1.10;;;13.50;99.90;;;;;;5052936;28;20234;-62
2021/12/31 03:03:48;;;;;;;3.80;1.00;;;13.50;99.90;;;;;;5052844;28;20214;-62
2021/12/31 03:06:17;;;;;;;1.93;1.17;;;13.50;99.90;;;;;;5052640;28;20707;-63
2021/12/31 03:08:46;;;;;;;4.83;1.20;;;13.60;99.90;;;;;;5053012;28;20232;-63
2021/12/31 03:11:14;;;;;;;2.30;1.17;;;13.60;99.90;;;;;;5053077;28;20249;-62
2021/12/31 03:13:44;;;;;;;1.37;1.27;;;13.60;99.90;;;;;;5052672;28;20205;-61
2021/12/31 03:16:11;;;;;;;3.13;1.20;;;13.60;99.90;;;;;;5052660;28;20672;-61
2021/12/31 03:18:39;;;;;;;2.37;1.40;;;13.60;99.90;;;;;;5052586;28;20637;-63
2021/12/31 03:21:10;;;;;;;4.00;1.30;;;13.60;99.90;;;;;;5052738;28;20303;-62
2021/12/31 03:23:37;;;;;;;3.17;1.23;;;13.60;99.90;;;;;;5053464;28;20205;-62
2021/12/31 03:26:04;;;;;;;3.37;1.10;;;13.60;99.90;;;;;;5052937;28;20683;-63
2021/12/31 03:28:31;;;;;;;2.60;0.90;;;13.70;99.90;;;;;;5053114;28;20571;-63
2021/12/31 03:30:59;;;;;;;2.57;1.00;;;13.70;99.90;;;;;;5052557;28;20212;-63
2021/12/31 03:33:25;;;;;;;3.13;1.20;;;13.70;99.90;;;;;;5052382;28;20232;-62
2021/12/31 03:35:52;;;;;;;3.53;1.07;;;13.70;99.90;;;;;;5052477;28;20205;-63
2021/12/31 03:38:19;;;;;;;4.43;1.30;;;13.70;99.90;;;;;;5052436;28;20244;-63
2021/12/31 03:40:46;;;;;;;2.40;1.17;;;13.80;99.90;;;;;;5052540;28;20233;-63
2021/12/31 03:43:13;;;;;;;2.77;1.10;;;13.80;99.90;;;;;;5052358;28;20301;-60
2021/12/31 03:45:41;;;;;;;2.70;0.90;;;13.80;99.90;;;;;;5052419;28;20566;-61
2021/12/31 03:48:09;;;;;;;4.23;1.20;;;13.70;99.90;;;;;;5051753;28;20332;-60
2021/12/31 03:50:36;;;;;;;3.70;1.20;;;13.70;99.90;;;;;;5052459;28;20275;-63
2021/12/31 03:53:02;;;;;;;2.27;1.03;;;13.70;99.90;;;;;;5052264;28;20259;-63
2021/12/31 03:55:29;;;;;;;3.83;1.20;;;13.70;99.90;;;;;;5052722;28;20201;-61
2021/12/31 03:57:56;;;;;;;3.10;1.20;;;13.70;99.90;;;;;;5052174;28;20226;-61
2021/12/31 04:00:23;;;;;;;3.43;0.80;;;13.70;99.90;;;;;;5052172;28;20209;-61
2021/12/31 04:02:50;;;;;;;2.07;1.10;;;13.70;99.90;;;;;;5052453;28;20282;-61
2021/12/31 04:05:18;;;;;;;3.10;1.23;;;13.70;99.90;;;;;;5051971;28;20685;-61
2021/12/31 04:07:44;;;;;;;3.63;1.10;;;13.70;99.90;;;;;;5051948;28;20210;-61
2021/12/31 04:10:11;;;;;;;2.83;1.10;;;13.80;99.90;;;;;;5051969;28;20214;-61
2021/12/31 04:12:38;;;;;;;2.70;0.90;;;13.80;99.90;;;;;;5052104;28;20209;-61
2021/12/31 04:15:06;;;;;;;3.60;1.43;;;13.80;99.90;;;;;;5051811;28;20300;-61
2021/12/31 04:17:32;;;;;;;2.67;1.23;;;13.80;99.90;;;;;;5051760;28;20205;-61
2021/12/31 04:19:59;;;;;;;3.07;0.83;;;13.70;99.90;;;;;;5052011;28;20619;-61
2021/12/31 04:22:28;;;;;;;3.73;0.97;;;13.70;99.90;;;;;;5051685;28;20283;-62
2021/12/31 04:24:55;;;;;;;3.97;1.30;;;13.70;99.90;;;;;;5052048;28;20299;-62
2021/12/31 04:27:23;;;;;;;2.67;1.10;;;13.70;99.90;;;;;;5051732;28;20588;-61
2021/12/31 04:29:53;;;;;;;1.77;1.10;;;13.70;99.90;;;;;;5051094;28;20279;-61
2021/12/31 04:32:21;;;;;;;1.23;0.97;;;13.70;99.90;;;;;;5051917;28;20229;-61
2021/12/31 04:34:48;;;;;;;3.07;1.00;;;13.70;99.90;;;;;;5051975;28;20590;-62
2021/12/31 04:37:15;;;;;;;3.80;1.30;;;13.70;99.90;;;;;;5051593;28;20243;-61
2021/12/31 04:39:43;;;;;;;1.97;1.07;;;13.70;99.90;;;;;;5051323;28;20295;-61
2021/12/31 04:42:10;;;;;;;2.87;1.10;;;13.70;99.90;;;;;;5051476;28;20222;-61
2021/12/31 04:44:37;;;;;;;2.00;1.10;;;13.70;99.90;;;;;;5051398;28;20214;-62
2021/12/31 04:47:05;;;;;;;2.40;1.27;;;13.70;99.90;;;;;;5051595;28;20205;-62
2021/12/31 04:49:31;;;;;;;2.50;1.20;;;13.70;99.90;;;;;;5051167;28;20763;-61
2021/12/31 04:51:58;;;;;;;3.93;1.30;;;13.70;99.90;;;;;;5051618;28;20683;-62
2021/12/31 04:54:25;;;;;;;1.87;1.10;;;13.60;99.90;;;;;;5051897;28;20213;-61
2021/12/31 04:56:54;;;;;;;3.40;2.27;;;13.60;99.90;;;;;;5051313;28;20205;-61
2021/12/31 04:59:21;;;;;;;3.40;1.23;;;13.60;99.90;;;;;;5051676;28;20233;-61
2021/12/31 05:01:48;;;;;;;3.17;1.00;;;13.60;99.90;;;;;;5051090;28;20733;-61
2021/12/31 05:04:15;;;;;;;2.83;0.93;;;13.50;99.90;;;;;;5051334;28;20216;-62
2021/12/31 05:06:42;;;;;;;1.57;1.03;;;13.50;99.90;;;;;;5050856;28;20688;-60
2021/12/31 05:09:09;;;;;;;2.37;0.90;;;13.50;99.90;;;;;;5051080;28;20279;-61
2021/12/31 05:11:36;;;;;;;1.40;0.90;;;13.50;99.90;;;;;;5051172;28;20213;-62
2021/12/31 05:14:05;;;;;;;3.10;0.90;;;13.50;99.90;;;;;;5051073;28;20208;-61
2021/12/31 05:16:31;;;;;;;3.37;1.37;;;13.50;99.90;;;;;;5051051;28;20560;-61
2021/12/31 05:18:58;;;;;;;2.63;1.20;;;13.50;99.90;;;;;;5051029;28;20233;-61
2021/12/31 05:21:25;;;;;;;2.47;1.07;;;13.50;99.90;;;;;;5050988;28;20232;-61
2021/12/31 05:23:51;;;;;;;2.40;1.03;;;13.50;99.90;;;;;;5050607;28;20209;-61
2021/12/31 05:26:18;;;;;;;2.47;1.03;;;13.40;99.90;;;;;;5050954;28;20634;-61
2021/12/31 05:28:45;;;;;;;2.37;1.17;;;13.40;99.90;;;;;;5050962;28;20600;-61
2021/12/31 05:31:13;;;;;;;2.37;0.90;;;13.40;99.90;;;;;;5050876;28;20206;-60
2021/12/31 05:33:39;;;;;;;5.53;1.23;;;13.40;99.90;;;;;;5051034;28;20205;-61
2021/12/31 05:36:06;;;;;;;2.23;1.00;;;13.40;99.90;;;;;;5050590;28;20213;-61
2021/12/31 05:38:33;;;;;;;2.43;1.17;;;13.40;99.90;;;;;;5050759;28;20636;-61
2021/12/31 05:41:00;;;;;;;1.67;1.00;;;13.40;99.90;;;;;;5053590;28;20217;-60
2021/12/31 05:43:27;;;;;;;2.43;0.97;;;13.40;99.90;;;;;;5054654;28;20672;-61
2021/12/31 05:45:54;;;;;;;1.60;0.83;;;13.40;99.90;;;;;;5054410;28;20239;-61
2021/12/31 05:48:22;;;;;;;2.87;1.20;;;13.30;99.90;;;;;;5054546;28;20221;-60
2021/12/31 05:50:49;;;;;;;2.13;0.97;;;13.30;99.90;;;;;;5054569;28;20233;-61
2021/12/31 05:53:15;;;;;;;1.47;0.90;;;13.30;99.90;;;;;;5054764;28;20263;-61
2021/12/31 05:55:42;;;;;;;3.00;0.73;;;13.40;99.90;;;;;;5054721;28;20209;-61
2021/12/31 05:58:09;;;;;;;2.83;0.90;;;13.40;99.90;;;;;;5054407;28;20287;-61
2021/12/31 06:00:35;;;;;;;2.00;0.80;;;13.40;99.90;;;;;;5054629;28;20263;-61
2021/12/31 06:03:02;;;;;;;4.57;1.00;;;13.40;99.90;;;;;;5054380;28;20226;-61
2021/12/31 06:05:30;;;;;;;3.30;0.90;;;13.40;99.90;;;;;;5054629;28;20210;-62
2021/12/31 06:07:58;;;;;;;4.37;1.00;;;13.30;99.90;;;;;;5054215;28;20233;-61
2021/12/31 06:10:25;;;;;;;2.33;0.90;;;13.30;99.90;;;;;;5054339;28;20210;-62
2021/12/31 06:12:56;;;;;;;2.13;0.97;;;13.20;99.90;;;;;;5054299;28;20205;-61
2021/12/31 06:15:23;;;;;;;2.20;0.90;;;13.20;99.90;;;;;;5054229;28;20263;-62
2021/12/31 06:17:51;;;;;;;3.57;1.10;;;13.20;99.90;;;;;;5054095;28;20206;-62
2021/12/31 06:20:17;;;;;;;2.47;1.10;;;13.10;99.90;;;;;;5054009;28;20209;-62
2021/12/31 06:22:45;;;;;;;2.63;1.20;;;13.10;99.90;;;;;;5054215;28;20252;-62
2021/12/31 06:25:12;;;;;;;3.97;1.30;;;13.10;99.90;;;;;;5053793;28;20259;-62
2021/12/31 06:27:39;;;;;;;2.93;1.47;;;13.10;99.90;;;;;;5053594;28;20210;-62
2021/12/31 06:30:07;;;;;;;4.30;1.27;;;13.10;99.90;;;;;;5053857;28;20257;-62
2021/12/31 06:32:33;;;;;;;3.13;1.53;;;13.10;99.90;;;;;;5053422;28;20263;-62
2021/12/31 06:35:00;;;;;;;2.97;1.20;;;13.10;99.90;;;;;;5053946;28;20576;-62
2021/12/31 06:37:27;;;;;;;2.97;1.13;;;13.10;99.90;;;;;;5053521;28;20206;-62
2021/12/31 06:39:55;;;;;;;2.83;1.10;;;13.10;99.90;;;;;;5053920;28;20642;-59
2021/12/31 06:42:25;;;;;;;2.63;1.20;;;13.10;99.90;;;;;;5054101;28;20287;-63
2021/12/31 06:44:52;;;;;;;3.37;1.50;;;13.10;99.90;;;;;;5053852;28;20224;-63
2021/12/31 06:47:18;;;;;;;1.87;1.00;;;13.10;99.90;;;;;;5054003;28;20271;-63
2021/12/31 06:49:45;;;;;;;2.27;1.10;;;13.00;99.90;;;;;;5053253;28;20234;-62
2021/12/31 06:52:12;;;;;;;2.30;1.00;;;13.00;99.90;;;;;;5052670;28;20675;-63
2021/12/31 06:54:38;;;;;;;1.07;0.97;;;12.90;99.90;;;;;;5053504;28;20228;-62
2021/12/31 06:57:06;;;;;;;1.60;1.10;;;12.80;99.90;;;;;;5053503;28;20263;-63
2021/12/31 06:59:33;;;;;;;3.00;1.30;;;12.80;99.90;;;;;;5053338;28;20646;-62
2021/12/31 07:02:00;;;;;;;2.17;1.27;;;12.70;99.90;;;;;;5053640;28;20229;-61
2021/12/31 07:04:26;;;;;;;3.47;1.30;;;12.70;99.90;;;;;;5053285;28;20638;-61
2021/12/31 07:06:53;;;;;;;2.57;1.40;;;12.60;99.90;;;;;;5052838;28;20618;-60
2021/12/31 07:09:20;;;;;;;2.00;1.10;;;12.60;99.90;;;;;;5053169;28;20232;-61
2021/12/31 07:11:46;;;;;;;2.30;1.07;;;12.60;99.90;;;;;;5052740;28;20341;-62
2021/12/31 07:14:14;;;;;;;2.00;1.23;;;12.60;99.90;;;;;;5052730;28;20212;-61
2021/12/31 07:16:41;;;;;;;2.17;1.40;;;12.60;99.90;;;;;;5052638;28;20260;-61
2021/12/31 07:19:08;;;;;;;4.17;1.63;;;12.60;99.90;;;;;;5052685;28;20235;-61
2021/12/31 07:21:35;;;;;;;4.57;1.40;;;12.60;99.90;;;;;;5052681;28;20286;-62
2021/12/31 07:24:01;;;;;;;2.43;1.33;;;12.60;99.90;;;;;;5052775;28;20202;-61
2021/12/31 07:26:28;;;;;;;2.07;1.60;;;12.50;99.90;;;;;;5052716;28;20205;-61
2021/12/31 07:28:55;;;;;;;2.40;1.50;;;12.60;99.90;;;;;;5052292;28;20915;-61
2021/12/31 07:31:23;;;;;;;2.20;1.53;;;12.50;99.90;;;;;;5052605;28;20664;-61
2021/12/31 07:33:49;;;;;;;5.23;1.70;;;12.50;99.90;;;;;;5052423;28;20205;-61
2021/12/31 07:36:16;;;;;;;2.77;1.47;;;12.40;99.90;;;;;;5052507;28;20270;-61
2021/12/31 07:38:49;;;;;;;2.03;1.40;;;12.40;99.90;;;;;;5052369;28;20283;-62
2021/12/31 07:41:15;;;;;;;2.97;1.70;;;12.30;99.90;;;;;;5052663;28;20202;-62
2021/12/31 07:43:42;;;;;;;2.67;1.70;;;12.30;99.90;;;;;;5052830;28;20595;-62
2021/12/31 07:46:09;;;;;;;2.50;1.30;;;12.30;99.90;;;;;;5052415;28;20260;-61
2021/12/31 07:48:36;;;;;;;2.87;1.47;;;12.30;99.90;;;;;;5052353;28;20233;-62
2021/12/31 07:51:03;;;;;;;4.20;1.50;;;12.30;99.90;;;;;;5052332;28;20212;-61
2021/12/31 07:53:30;;;;;;;2.43;1.60;;;12.30;99.90;;;;;;5052254;28;20311;-62
2021/12/31 07:55:57;;;;;;;3.47;1.50;;;12.30;99.90;;;;;;5051778;28;20213;-62
2021/12/31 07:58:24;;;;;;;5.17;1.67;;;12.30;99.90;;;;;;5052862;28;20226;-62
2021/12/31 08:00:51;;;;;;;3.70;1.60;;;12.30;99.90;;;;;;5052673;28;20306;-62
2021/12/31 08:03:17;;;;;;;2.33;1.73;;;12.20;99.90;;;;;;5051389;28;20729;-62
2021/12/31 08:05:45;;;;;;;1.97;1.47;;;12.30;99.90;;;;;;5052151;28;20271;-62
2021/12/31 08:08:12;;;;;;;2.23;1.43;;;12.20;99.90;;;;;;5051896;28;20233;-61
2021/12/31 08:10:40;;;;;;;2.03;1.60;;;12.20;99.90;;;;;;5052439;28;20705;-62
2021/12/31 08:13:07;;;;;;;4.30;1.57;;;12.30;99.90;;;;;;5051895;28;20205;-63
2021/12/31 08:15:33;;;;;;;4.30;1.60;;;12.30;99.90;;;;;;5051934;28;20689;-61
2021/12/31 08:18:00;;;;;;;1.93;1.77;;;12.30;99.90;;;;;;5051600;28;20241;-61
2021/12/31 08:20:27;;;;;;;5.43;1.60;;;12.30;99.90;;;;;;5051646;28;20270;-61
2021/12/31 08:23:05;;;;;;;2.53;1.50;;;12.30;99.90;;;;;;5051262;28;20266;-61
2021/12/31 08:25:31;;;;;;;3.37;1.40;;;12.20;99.90;;;;;;5051581;28;20206;-61
2021/12/31 08:27:58;;;;;;;2.73;1.63;;;12.20;99.90;;;;;;5051589;28;20332;-71
2021/12/31 08:30:25;;;;;;;4.57;1.77;;;12.30;99.90;;;;;;5051590;28;20605;-70
2021/12/31 08:32:52;;;;;;;3.80;1.47;;;12.30;99.90;;;;;;5052599;28;20231;-71
2021/12/31 08:35:18;;;;;;;2.37;1.60;;;12.20;99.90;;;;;;5051652;28;20316;-62
2021/12/31 08:37:45;;;;;;;2.67;1.40;;;12.30;99.90;;;;;;5051311;28;20213;-62
2021/12/31 08:40:14;;;;;;;3.03;1.50;;;12.20;99.90;;;;;;5051541;28;20208;-62
2021/12/31 08:42:41;;;;;;;5.23;1.67;;;12.20;99.90;;;;;;5051363;28;20674;-62
2021/12/31 08:45:08;;;;;;;2.87;1.50;;;12.10;99.90;;;;;;5051813;28;20204;-62
2021/12/31 08:47:35;;;;;;;2.90;1.43;;;12.20;99.90;;;;;;5051255;28;20220;-61
2021/12/31 08:50:02;;;;;;;3.37;1.47;;;12.20;99.90;;;;;;5051230;28;20713;-62
2021/12/31 08:52:29;;;;;;;4.10;1.77;;;12.20;99.90;;;;;;5051222;28;20209;-61
2021/12/31 08:54:55;;;;;;;6.07;1.50;;;12.20;99.90;;;;;;5051019;28;20209;-62
2021/12/31 08:57:23;;;;;;;2.83;1.60;;;12.20;99.90;;;;;;5051389;28;20212;-62
2021/12/31 08:59:50;;;;;;;2.40;1.50;;;12.20;99.90;;;;;;5051043;28;20233;-62
2021/12/31 09:02:16;;;;;;;1.43;1.23;;;12.20;99.90;;;;;;5054690;28;20225;-62
2021/12/31 09:04:43;;;;;;;2.33;1.33;;;12.20;99.90;;;;;;5050938;28;20217;-62
2021/12/31 09:07:10;;;;;;;2.67;1.33;;;12.20;99.90;;;;;;5051336;28;20204;-62
2021/12/31 09:09:36;;;;;;;1.50;1.40;;;12.20;99.90;;;;;;5051077;28;20229;-62
2021/12/31 09:12:03;;;;;;;2.83;1.83;;;12.20;99.90;;;;;;5051158;28;20208;-62
2021/12/31 09:14:31;;;;;;;2.40;1.30;;;12.30;99.90;;;;;;5051618;28;20263;-62
2021/12/31 09:17:00;;;;;;;2.23;1.53;;;12.30;99.90;;;;;;5054608;28;20209;-62
2021/12/31 09:19:27;;;;;;;2.47;1.40;;;12.30;99.90;;;;;;5055007;28;20718;-62
2021/12/31 09:21:55;;;;;;;3.03;1.60;;;12.30;99.90;;;;;;5048806;28;20314;-62
2021/12/31 09:24:22;;;;;;;3.93;1.70;;;12.30;99.90;;;;;;5041795;28;20287;-62
2021/12/31 09:26:49;;;;;;;2.10;1.20;;;12.30;99.90;;;;;;5034680;28;20225;-62
2021/12/31 09:29:18;;;;;;;2.50;1.37;;;12.40;99.90;;;;;;5034656;28;20234;-62
2021/12/31 09:31:46;;;;;;;1.97;1.47;;;12.40;99.90;;;;;;5035177;28;20209;-62
2021/12/31 09:34:13;;;;;;;2.07;1.43;;;12.40;99.90;;;;;;5034595;28;20214;-66
2021/12/31 09:36:40;;;;;;;2.40;1.10;;;12.40;99.90;;;;;;5034241;28;20683;-63
2021/12/31 09:39:06;;;;;;;2.37;1.27;;;12.40;99.90;;;;;;5034343;28;20226;-65
2021/12/31 09:41:33;;;;;;;1.60;1.20;;;12.50;99.90;;;;;;5034967;28;20276;-63
2021/12/31 09:44:00;;;;;;;3.13;1.50;;;12.50;99.90;;;;;;5034331;28;20222;-63
2021/12/31 09:46:27;;;;;;;2.27;1.40;;;12.60;99.90;;;;;;5034160;28;20221;-64
2021/12/31 09:48:56;;;;;;;4.17;1.33;;;12.60;99.90;;;;;;5034434;28;20234;-63
2021/12/31 09:51:24;;;;;;;1.77;1.27;;;12.60;99.90;;;;;;5034054;28;20981;-63
2021/12/31 09:53:52;;;;;;;1.87;1.50;;;12.60;99.90;;;;;;5033975;28;20232;-64
2021/12/31 09:56:19;;;;;;;4.30;1.33;;;12.60;99.90;;;;;;5033882;28;20213;-63
2021/12/31 09:58:46;;;;;;;2.70;1.30;;;12.50;99.90;;;;;;5033707;28;20635;-64
2021/12/31 10:01:14;;;;;;;2.60;1.13;;;12.50;99.90;;;;;;5034182;28;20220;-63
2021/12/31 10:03:40;;;;;;;2.83;1.47;;;12.50;99.90;;;;;;5033682;28;20301;-61
2021/12/31 10:06:10;;;;;;;2.50;1.47;;;12.50;99.90;;;;;;5033653;28;20698;-62
2021/12/31 10:08:42;;;;;;;2.53;1.10;;;12.40;99.90;;;;;;5033822;28;20881;-62
2021/12/31 10:11:13;;;;;;;6.07;1.47;;;12.40;99.90;;;;;;5033702;28;20924;-62
2021/12/31 10:13:41;;;;;;;3.40;1.40;;;12.40;99.90;;;;;;5033480;28;20217;-62
2021/12/31 10:16:20;;;;;;;2.47;1.50;;;12.50;99.90;;;;;;5034202;28;20627;-62
2021/12/31 10:18:47;;;;;;;3.80;1.40;;;12.40;99.90;;;;;;5034009;28;20250;-63
2021/12/31 10:21:19;;;;;;;3.37;1.40;;;12.50;99.90;;;;;;5033696;28;20587;-62
2021/12/31 10:23:47;;;;;;;1.67;1.07;;;12.50;99.90;;;;;;5033817;28;20222;-63
2021/12/31 10:26:17;;;;;;;1.93;1.30;;;12.50;99.90;;;;;;5033248;28;20209;-63
2021/12/31 10:28:55;;;;;;;2.33;1.20;;;12.60;99.90;;;;;;5034339;28;20230;-62
2021/12/31 10:31:21;;;;;;;2.80;1.37;;;12.70;99.90;;;;;;5034108;28;20213;-64
2021/12/31 10:33:49;;;;;;;1.80;1.30;;;12.70;99.90;;;;;;5033235;28;20209;-62
2021/12/31 10:39:21;;;;;;;2.23;1.60;;;12.70;99.90;;;;;;5129354;27;20623;-61
2021/12/31 10:41:52;;;;;;;2.17;1.10;;;12.70;99.90;;;;;;5129522;27;20243;-62
2021/12/31 10:44:19;;;;;;;1.70;1.10;;;12.70;99.90;;;;;;5129198;27;20210;-61
2021/12/31 10:46:45;;;;;;;4.90;1.67;;;12.80;99.90;;;;;;5128996;27;20424;-61
2021/12/31 10:49:13;;;;;;;1.77;1.30;;;12.70;99.90;;;;;;5129333;27;20271;-61
2021/12/31 10:51:41;;;;;;;1.40;1.20;;;12.80;99.90;;;;;;5129194;27;20230;-61
2021/12/31 10:54:31;;;;;;;2.27;1.73;;;12.80;99.90;;;;;;5129547;27;20263;-61
2021/12/31 10:56:59;;;;;;;2.50;1.50;;;12.80;99.90;;;;;;5128757;27;20207;-61
2021/12/31 10:59:32;;;;;;;3.97;1.90;;;12.90;99.90;;;;;;5128986;27;20600;-61
2021/12/31 11:01:59;;;;;;;4.33;2.23;;;12.90;99.90;;;;;;5129344;27;20664;-62
2021/12/31 11:04:29;;;;;;;2.33;1.30;;;12.90;99.90;;;;;;5128966;27;20226;-62
2021/12/31 11:06:56;;;;;;;1.90;1.30;;;13.00;99.90;;;;;;5128916;27;20207;-61
2021/12/31 11:09:25;;;;;;;3.50;1.60;;;13.00;99.90;;;;;;5128915;27;20643;-61
2021/12/31 11:11:53;;;;;;;4.53;1.40;;;13.20;99.90;;;;;;5129011;27;20241;-61
2021/12/31 11:14:19;;;;;;;3.77;1.47;;;13.20;99.90;;;;;;5128832;27;20206;-61
2021/12/31 11:16:46;;;;;;;1.83;1.20;;;13.10;99.90;;;;;;5128744;27;20762;-61
2021/12/31 11:19:13;;;;;;;1.40;1.10;;;13.10;99.90;;;;;;5128401;27;20654;-62
2021/12/31 11:21:41;;;;;;;3.03;1.20;;;13.10;99.90;;;;;;5128856;27;20218;-61
2021/12/31 11:24:33;;;;;;;1.60;1.27;;;13.00;99.90;;;;;;5128293;27;20234;-60
2021/12/31 11:27:20;;;;;;;2.70;1.40;;;13.00;99.90;;;;;;5128340;27;20207;-62
2021/12/31 11:29:47;;;;;;;2.80;1.27;;;13.00;99.90;;;;;;5128482;27;20233;-62
2021/12/31 11:32:14;;;;;;;1.83;1.30;;;13.00;99.90;;;;;;5128794;27;20214;-61
2021/12/31 11:34:40;;;;;;;1.77;1.30;;;12.90;99.90;;;;;;5127955;27;20199;-61
2021/12/31 11:37:07;;;;;;;2.80;1.20;;;13.00;99.90;;;;;;5127979;27;20672;-61
2021/12/31 11:39:37;;;;;;;2.20;1.20;;;13.00;99.90;;;;;;5127997;27;20276;-58
2021/12/31 11:42:05;;;;;;;2.17;1.27;;;13.00;99.90;;;;;;5128269;27;20250;-61
2021/12/31 11:44:34;;;;;;;2.47;1.27;;;13.00;99.90;;;;;;5128008;27;20665;-60
2021/12/31 11:47:15;;;;;;;5.27;1.47;;;13.10;99.90;;;;;;5128033;27;20207;-58
2021/12/31 11:49:43;;;;;;;1.47;1.20;;;13.10;99.90;;;;;;5119202;27;20631;-63
2021/12/31 11:52:13;;;;;;;1.43;1.10;;;13.10;99.90;;;;;;5114403;28;20620;-62
2021/12/31 11:54:42;;;;;;;1.80;1.30;;;13.20;99.90;;;;;;5114705;28;20207;-61
2021/12/31 11:57:16;;;;;;;1.70;1.20;;;13.20;99.90;;;;;;5114238;28;20206;-63
2021/12/31 11:59:54;;;;;;;2.13;1.20;;;13.30;99.90;;;;;;5114453;27;20230;-63
2021/12/31 12:02:32;;;;;;;3.07;1.20;;;13.30;99.90;;;;;;5114703;28;20198;-63
2021/12/31 12:05:12;;;;;;;2.50;1.30;;;13.30;99.90;;;;;;5115050;28;20203;-63
2021/12/31 12:07:40;;;;;;;3.77;1.53;;;13.30;99.90;;;;;;5113961;28;20199;-64
2021/12/31 12:10:19;;;;;;;1.80;1.23;;;13.30;97.10;;;;;;5114123;28;20203;-63
2021/12/31 12:12:50;;;;;;;1.93;1.53;;;13.40;99.90;;;;;;5114659;28;20215;-63
2021/12/31 12:15:40;;;;;;;1.47;1.10;;;13.50;76.10;;;;;;5114575;28;20302;-62
2021/12/31 12:18:07;;;;;;;1.70;1.23;;;13.50;68.30;;;;;;5110503;28;20235;-62
2021/12/31 12:20:39;;;;;;;1.40;1.10;;;13.40;73.90;;;;;;5114009;28;20211;-61
2021/12/31 12:23:18;;;;;;;3.17;1.60;;;13.40;90.80;;;;;;5114932;28;20208;-63
2021/12/31 12:25:47;;;;;;;2.87;1.00;;;13.40;95.50;;;;;;5114714;28;20354;-63
2021/12/31 12:28:16;;;;;;;1.70;1.10;;;13.40;99.90;;;;;;5113874;27;20220;-63
2021/12/31 12:30:48;;;;;;;1.73;1.07;;;13.40;99.90;;;;;;5114240;28;20214;-61
2021/12/31 12:33:21;;;;;;;2.20;1.30;;;13.50;99.90;;;;;;5114335;28;20195;-64
2021/12/31 12:35:50;;;;;;;2.87;1.10;;;13.60;99.90;;;;;;5114641;28;20694;-63
2021/12/31 12:38:21;;;;;;;2.60;1.20;;;13.60;51.80;;;;;;5113813;28;20324;-63
2021/12/31 12:40:52;;;;;;;3.27;1.20;;;13.70;29.20;;;;;;5114094;27;20587;-63
2021/12/31 12:43:20;;;;;;;3.47;1.63;;;13.60;42.60;;;;;;5114095;28;20199;-63
2021/12/31 12:45:49;;;;;;;2.10;1.37;;;13.60;32.80;;;;;;5113726;28;20216;-63
2021/12/31 12:48:17;;;;;;;2.00;1.00;;;13.60;78.60;;;;;;5113299;28;20250;-63
2021/12/31 12:50:51;;;;;;;2.00;1.30;;;13.70;32.10;;;;;;5113361;28;20665;-63
2021/12/31 12:53:22;;;;;;;1.73;1.40;;;13.60;45.80;;;;;;5113616;28;20228;-63
2021/12/31 12:56:01;;;;;;;2.13;1.33;;;13.60;48.30;;;;;;5113397;28;20287;-63